Airfield :
LOGIN :

Register | Disclaimer

   EN    FR    IT 

 










Legend :    VFR   Marginal VFR   IFR   Intensive IFR   Very Intensive IFR
Visi :
Ceiling :
>= 8 km
>= 3000ft
5 to 8 km
1000 to 3000 ft
1500m to 5 km
500 to 1000 ft
800 to 1500m
200 to 500 ft
< 800m
< 200 ft
Symbols :   Thunderstorms  Fog  Heavy snow  Heavy precipitations  Wind > 20 kt
SIGMETs :     Misc.  Thunderstorms  Icing  Turbulence  Mountain Waves  Volcanic Ashes







- Airport Elevation : 622 ft
- IATA code : BRS
- Download approach charts


EGGD - Bristol Int.

CURRENT METAR :
  • 121620Z AUTO 12014KT 9999 FEW023 06/03 Q1016

EXPIRED METARs :
  • 121550Z AUTO 12015KT 9999 FEW022 06/03 Q1017
  • 121520Z AUTO 12013KT 9999 SCT021 06/04 Q1017
  • 121450Z 13012KT 9999 SCT023 07/04 Q1017
  • 121420Z AUTO 13012KT 9999 BKN022 07/04 Q1017
  • 121350Z AUTO 13013KT 9999 BKN022 07/04 Q1018

TAF TAF EGGD
Valid from the 12 at 12:00 until the 13 at 12:00 UTC


121055Z 1212/1312 11012KT 9999 FEW015 SCT030
PROB30
TEMPO 1212/1220 8000 BKN012
TEMPO 1220/1312 12015G25KT
ATIS : +44 1275 473 666
No reported NOTAMs for that airfield.



MET'MAP, your aeronautical weather chart ! - Copyright ORBIFLY December 2007 - Disclaimer

ORBIFLY MET'MAP TEAM :

Programming & Development : Alexandra Zaïnal
Concept & Development : Baudouin d'Aumeries
Co-Development & Prog : Marc-Olivier Méhu
Technical & hardware support : Manuel Goepfert

Contact : metmap@orbifly.com




SOURCES & CREDITS :

   NOAA